Stations météo

Publicité
Mont Aigoual, France (7560): Température de l'air & dewpoint: 20.09.2017 11:00:00 - 26.09.2017 11:00:00 (CEST)Mont Aigoual, France (7560): Vitesse du vent & gusts: 20.09.2017 11:00:00 - 26.09.2017 11:00:00 (CEST)Mont Aigoual, France (7560): Direction du vent: 20.09.2017 11:00:00 - 26.09.2017 11:00:00 (CEST)Mont Aigoual, France (7560): visibility: 20.09.2017 11:00:00 - 26.09.2017 11:00:00 (CEST)Mont Aigoual, France (7560): Quantités de précipitations: 20.09.2017 11:00:00 - 26.09.2017 11:00:00 (CEST)
Date & Time tt [°C] td [°C] ff [km/h] ff [knt] fx [km/h] fx [knt] dd vv [km] rr [mm]
26.09.2017 11:00:00 - - - - - - - - -
26.09.2017 10:00:00 - - - - - - - - -
26.09.2017 09:00:00 - - - - - - - - -
26.09.2017 08:00:00 6,9 6,9 29 16 42 23 NNW 0,1 0,0
26.09.2017 07:00:00 7,0 7,0 29 15 42 23 NNW 0,1 0,2
26.09.2017 06:00:00 7,0 7,0 35 19 49 27 NNW 0,1 0,0
26.09.2017 05:00:00 7,0 7,0 39 21 53 29 NW 0,1 0,0
26.09.2017 04:00:00 7,1 7,1 45 24 56 30 NW 0,1 0,0
26.09.2017 03:00:00 7,5 7,5 41 22 61 33 NNW 0,1 0,0
26.09.2017 02:00:00 7,6 7,6 41 22 65 35 NNW 0,1 0,0
26.09.2017 01:00:00 7,7 7,7 46 25 68 37 NNW 0,1 0,0
26.09.2017 00:00:00 7,8 7,8 52 28 68 37 NNW - 0,0
25.09.2017 23:00:00 7,9 7,8 48 26 68 37 NW 0,1 0,0
25.09.2017 22:00:00 8,2 8,1 37 20 62 34 NNW 0,1 0,0
25.09.2017 21:00:00 8,3 8,2 42 23 58 31 NW 0,1 0,0
25.09.2017 20:00:00 8,7 8,6 41 22 57 31 NW 0,2 0,0
25.09.2017 19:00:00 8,9 8,4 39 21 53 28 NW 0,8 0,0
25.09.2017 18:00:00 9,7 7,6 36 19 57 31 NNW 20 0,0
25.09.2017 17:00:00 10,9 8,8 40 21 55 30 NW 20 0,0
25.09.2017 16:00:00 11,5 8,0 33 18 51 27 NW 20 0,0
25.09.2017 15:00:00 10,9 7,9 39 21 51 28 NW 20 0,0
25.09.2017 14:00:00 11,5 7,0 35 19 46 25 NW 20 0,0
25.09.2017 13:00:00 11,0 7,1 18 10 42 23 NW 20 0,0
25.09.2017 12:00:00 9,0 8,4 41 22 74 40 NNW 0,8 0,4
25.09.2017 11:00:00 9,5 8,3 53 28 74 40 NW 19 0,0
25.09.2017 10:00:00 9,6 7,2 47 26 61 33 NW 20 0,0
25.09.2017 09:00:00 11,0 6,1 34 19 41 22 NW 20 0,0
25.09.2017 08:00:00 10,7 5,7 29 16 34 18 NW 20 0,0
25.09.2017 07:00:00 10,7 5,4 31 17 32 18 NW 20 0,0
25.09.2017 06:00:00 10,8 5,7 24 13 25 14 NW 20 0,0
25.09.2017 05:00:00 11,6 5,7 21 11 22 12 WNW 20 0,0
25.09.2017 04:00:00 11,9 5,5 18 10 20 11 WNW 20 0,0
25.09.2017 03:00:00 12,1 5,7 8 4 11 6 NNW 20 0,0
25.09.2017 02:00:00 12,2 5,6 9 5 16 8 N 20 0,0
25.09.2017 01:00:00 11,9 4,4 15 8 18 10 N 20 0,0
25.09.2017 00:00:00 12,0 3,0 15 8 20 11 N 20 0,0
24.09.2017 23:00:00 11,8 4,3 20 11 29 15 N 20 0,0
24.09.2017 22:00:00 11,9 6,4 23 12 41 22 N 20 0,0
24.09.2017 21:00:00 11,7 8,4 34 19 48 26 NNW 20 0,0
24.09.2017 20:00:00 12,5 6,7 32 17 41 22 NW 20 0,0
24.09.2017 19:00:00 14,5 5,6 26 14 34 18 NNW 20 0,0
24.09.2017 18:00:00 15,7 5,0 26 14 35 19 NNW 20 0,0
24.09.2017 17:00:00 16,1 3,5 16 8 37 20 N 20 0,0
24.09.2017 16:00:00 16,2 3,3 13 7 32 17 N 20 0,0
24.09.2017 15:00:00 15,9 2,7 14 7 33 18 N 20 0,0
24.09.2017 14:00:00 15,5 2,6 11 6 33 18 NNW 19 0,0
24.09.2017 13:00:00 14,3 4,3 17 9 38 21 N 19 0,0
24.09.2017 12:00:00 13,9 5,0 13 7 30 16 NNE 20 0,0
24.09.2017 11:00:00 13,1 3,5 18 10 32 18 N 20 0,0
24.09.2017 10:00:00 12,1 2,8 25 14 42 23 N 20 0,0
24.09.2017 09:00:00 10,7 5,2 30 16 46 25 NNW 20 0,0
24.09.2017 08:00:00 9,7 5,1 39 21 48 26 NNW 20 0,0
24.09.2017 07:00:00 9,2 7,6 34 18 44 24 NNW 20 0,0
24.09.2017 06:00:00 9,4 7,7 28 15 38 20 NW 20 0,0
24.09.2017 05:00:00 9,8 7,7 29 16 35 19 NW 20 0,0
24.09.2017 04:00:00 10,0 7,4 28 15 31 17 NW 20 0,0
24.09.2017 03:00:00 10,5 7,4 27 15 31 17 WNW 20 0,0
24.09.2017 02:00:00 10,7 6,8 21 11 26 14 NW 20 0,0
24.09.2017 01:00:00 10,9 7,0 20 11 24 13 NW 20 0,0
24.09.2017 00:00:00 10,6 7,5 21 11 22 12 NW 20 0,0
23.09.2017 23:00:00 10,7 7,6 17 9 28 15 WNW 20 0,0
23.09.2017 22:00:00 10,5 8,4 26 14 31 17 NW 20 0,0
23.09.2017 21:00:00 11,0 7,7 26 14 31 17 NW 20 0,0
23.09.2017 20:00:00 11,7 7,4 16 9 22 12 W 20 0,0
23.09.2017 19:00:00 12,5 7,6 15 8 26 14 S 20 0,0
23.09.2017 18:00:00 13,1 6,9 19 11 36 19 S 20 0,0
23.09.2017 17:00:00 13,8 7,1 21 11 33 18 S 20 0,0
23.09.2017 16:00:00 13,5 7,0 17 9 35 19 S 20 0,0
23.09.2017 15:00:00 14,6 7,6 19 10 38 21 S 20 0,0
23.09.2017 14:00:00 13,4 7,8 19 11 36 19 S 20 0,0
23.09.2017 13:00:00 12,7 7,6 18 10 34 18 S 20 0,0
23.09.2017 12:00:00 12,3 7,2 19 10 30 16 S 20 0,0
23.09.2017 11:00:00 11,8 6,9 13 7 21 11 S 20 0,0
23.09.2017 10:00:00 10,8 6,3 9 5 18 10 SSW 20 0,0
23.09.2017 09:00:00 10,0 6,2 11 6 19 10 SSW 20 0,0
23.09.2017 08:00:00 9,5 5,7 13 7 16 9 S 20 0,0
23.09.2017 07:00:00 9,8 5,8 8 4 10 5 SSW 20 0,0
23.09.2017 06:00:00 10,1 6,1 4 2 11 6 S 20 0,0
23.09.2017 05:00:00 8,9 6,2 10 5 24 13 S 19 0,0
23.09.2017 04:00:00 8,5 6,3 18 10 26 14 ESE 14 0,0
23.09.2017 03:00:00 8,7 6,0 19 10 26 14 ESE 19 0,0
23.09.2017 02:00:00 9,4 7,2 14 8 19 11 ESE 20 0,0
23.09.2017 01:00:00 10,3 6,3 16 8 18 10 E 20 0,0
23.09.2017 00:00:00 10,4 5,4 10 5 12 7 NNE 20 0,0
22.09.2017 23:00:00 10,8 4,9 8 5 20 11 N 20 0,0
22.09.2017 22:00:00 10,0 5,4 17 9 29 16 NW 20 0,0
22.09.2017 21:00:00 9,7 5,3 27 15 32 18 NW 20 0,0
22.09.2017 20:00:00 11,4 7,7 20 11 28 15 WNW 20 0,0
22.09.2017 19:00:00 13,2 5,6 13 7 28 15 S 20 0,0
22.09.2017 18:00:00 14,1 5,4 23 13 35 19 S 20 0,0
22.09.2017 17:00:00 14,8 4,8 21 11 36 19 S 20 0,0
22.09.2017 16:00:00 15,1 4,7 18 10 34 18 S 20 0,0
22.09.2017 15:00:00 14,9 4,3 21 11 33 18 S 20 0,0
22.09.2017 14:00:00 14,6 3,1 17 9 28 15 S 20 0,0
22.09.2017 13:00:00 14,7 2,6 4 2 23 12 ESE 20 0,0
22.09.2017 12:00:00 13,9 -1,3 9 5 29 16 N 20 0,0
22.09.2017 11:00:00 13,1 -2,8 19 10 33 18 NNE 20 0,0
22.09.2017 10:00:00 12,0 -0,5 21 11 38 20 N 20 0,0
22.09.2017 09:00:00 10,8 -2,6 32 18 39 21 NW 20 0,0
22.09.2017 08:00:00 9,1 2,6 35 19 41 22 NW 20 0,0
22.09.2017 07:00:00 9,4 1,8 32 17 41 22 NW 20 0,0
22.09.2017 06:00:00 9,9 -1,5 31 17 42 23 NW 20 0,0
22.09.2017 05:00:00 10,1 0,9 25 13 31 17 NW 20 0,0
22.09.2017 04:00:00 10,6 0,0 20 11 33 18 NW 20 0,0
22.09.2017 03:00:00 10,3 2,4 22 12 38 20 NW 20 0,0
22.09.2017 02:00:00 10,2 2,5 24 13 36 19 NW 20 0,0
22.09.2017 01:00:00 9,9 3,8 25 14 29 15 NW 20 0,0
22.09.2017 00:00:00 10,5 4,2 17 9 22 12 NNW 20 0,0
21.09.2017 23:00:00 10,6 0,3 19 10 22 12 NNW 20 0,0
21.09.2017 22:00:00 10,7 0,1 18 10 26 14 NW 20 0,0
21.09.2017 21:00:00 11,7 -0,2 20 11 26 14 WNW 20 0,0
21.09.2017 20:00:00 12,3 -0,3 16 8 22 12 W 20 0,0
21.09.2017 19:00:00 13,6 -0,8 8 5 19 10 SSW 20 0,0
21.09.2017 18:00:00 13,9 -0,9 14 8 27 14 S 20 0,0
21.09.2017 17:00:00 14,1 -0,4 19 10 31 17 S 20 0,0
21.09.2017 16:00:00 14,4 0,2 18 10 33 18 S 20 0,0
21.09.2017 15:00:00 14,0 0,2 18 10 33 18 S 20 0,0
21.09.2017 14:00:00 13,8 0,1 21 12 31 17 S 20 0,0
21.09.2017 13:00:00 12,9 -0,7 16 9 29 15 S 20 0,0
21.09.2017 12:00:00 13,3 1,0 10 5 19 11 S 20 0,0
21.09.2017 11:00:00 13,0 1,9 5 3 12 7 S 20 0,0
21.09.2017 10:00:00 12,5 -3,0 2 1 9 5 NNE 20 0,0
21.09.2017 09:00:00 11,4 -15,2 6 3 10 5 N 20 0,0
21.09.2017 08:00:00 10,9 -18,5 9 5 12 6 NNW 20 0,0
21.09.2017 07:00:00 10,1 -16,3 9 5 15 8 N 20 0,0
21.09.2017 06:00:00 10,1 -15,4 8 4 19 11 N 20 0,0
21.09.2017 05:00:00 9,6 -13,0 19 10 32 17 NNW 20 0,0
21.09.2017 04:00:00 9,0 -10,5 21 11 39 21 NNW 20 0,0
21.09.2017 03:00:00 8,5 -5,4 29 15 33 18 NW 20 0,0
21.09.2017 02:00:00 8,5 -3,7 23 12 29 16 WNW 20 0,0
21.09.2017 01:00:00 8,6 -4,6 26 14 29 16 WNW 20 0,0
21.09.2017 00:00:00 8,7 -5,2 24 13 28 15 WNW 20 0,0
20.09.2017 23:00:00 7,6 0,6 17 9 23 12 NW 20 0,0
20.09.2017 22:00:00 8,3 0,3 18 10 27 14 WSW 20 0,0
20.09.2017 21:00:00 7,8 -0,2 12 6 24 13 W 20 0,0
20.09.2017 20:00:00 8,0 0,0 16 9 25 13 NW 20 0,0
20.09.2017 19:00:00 9,1 -1,1 11 6 20 11 N 20 0,0
20.09.2017 18:00:00 10,2 -0,3 13 7 25 14 N 20 0,0
20.09.2017 17:00:00 10,4 -0,2 14 7 25 13 N 20 0,0
20.09.2017 16:00:00 10,3 -1,1 13 7 29 15 N 20 0,0
20.09.2017 15:00:00 10,0 0,3 14 8 27 14 N 20 0,0
20.09.2017 14:00:00 9,3 0,7 11 6 28 15 N 20 0,0
20.09.2017 13:00:00 8,5 0,2 14 8 26 14 N 20 0,0
20.09.2017 12:00:00 8,0 0,0 11 6 27 14 N 20 0,0
20.09.2017 11:00:00 6,1 0,0 14 7 42 23 N 20 0,0

tt = Température de l'air
td = dewpoint
ff = Vitesse du vent
fx = gusts
dd = Direction du vent
vv = visibility
rr = Quantités de précipitations

stations d'obs. à proximité